sensor_id;sensor_type;location;lat;lon;timestamp;P1;durP1;ratioP1;P2;durP2;ratioP2
12429;SDS011;6279;42.192;24.326;2022-09-03T00:00:14;17.37;;;15.13;;
12429;SDS011;6279;42.192;24.326;2022-09-03T00:05:49;16.00;;;14.33;;
12429;SDS011;6279;42.192;24.326;2022-09-03T00:17:21;17.33;;;14.90;;
12429;SDS011;6279;42.192;24.326;2022-09-03T00:20:10;20.10;;;15.23;;
12429;SDS011;6279;42.192;24.326;2022-09-03T00:22:42;18.53;;;15.33;;
12429;SDS011;6279;42.192;24.326;2022-09-03T00:25:14;16.43;;;14.80;;
12429;SDS011;6279;42.192;24.326;2022-09-03T00:27:44;19.43;;;15.43;;
12429;SDS011;6279;42.192;24.326;2022-09-03T00:30:15;21.30;;;16.17;;
12429;SDS011;6279;42.192;24.326;2022-09-03T00:35:32;20.77;;;15.57;;
12429;SDS011;6279;42.192;24.326;2022-09-03T00:38:02;17.43;;;14.57;;
12429;SDS011;6279;42.192;24.326;2022-09-03T00:43:06;17.97;;;14.43;;
12429;SDS011;6279;42.192;24.326;2022-09-03T00:48:59;16.67;;;14.83;;
12429;SDS011;6279;42.192;24.326;2022-09-03T00:51:38;15.87;;;13.30;;
12429;SDS011;6279;42.192;24.326;2022-09-03T01:10:56;16.47;;;14.67;;
12429;SDS011;6279;42.192;24.326;2022-09-03T01:16:27;16.00;;;14.30;;
12429;SDS011;6279;42.192;24.326;2022-09-03T01:19:11;26.03;;;15.43;;
12429;SDS011;6279;42.192;24.326;2022-09-03T01:29:43;14.90;;;13.40;;
12429;SDS011;6279;42.192;24.326;2022-09-03T01:32:18;18.50;;;13.57;;
12429;SDS011;6279;42.192;24.326;2022-09-03T01:34:53;15.60;;;13.03;;
12429;SDS011;6279;42.192;24.326;2022-09-03T01:43:32;14.43;;;13.00;;
12429;SDS011;6279;42.192;24.326;2022-09-03T01:46:11;13.90;;;12.30;;
12429;SDS011;6279;42.192;24.326;2022-09-03T01:48:57;17.03;;;13.50;;
12429;SDS011;6279;42.192;24.326;2022-09-03T01:51:30;14.43;;;12.70;;
12429;SDS011;6279;42.192;24.326;2022-09-03T01:59:58;13.97;;;12.53;;
12429;SDS011;6279;42.192;24.326;2022-09-03T02:02:30;14.17;;;12.67;;
12429;SDS011;6279;42.192;24.326;2022-09-03T02:10:06;17.03;;;12.83;;
12429;SDS011;6279;42.192;24.326;2022-09-03T02:12:35;16.53;;;12.20;;
12429;SDS011;6279;42.192;24.326;2022-09-03T02:15:09;14.53;;;12.30;;
12429;SDS011;6279;42.192;24.326;2022-09-03T02:17:40;13.87;;;12.30;;
12429;SDS011;6279;42.192;24.326;2022-09-03T02:20:09;17.40;;;12.20;;
12429;SDS011;6279;42.192;24.326;2022-09-03T02:22:39;14.00;;;12.40;;
12429;SDS011;6279;42.192;24.326;2022-09-03T02:25:06;13.40;;;11.77;;
12429;SDS011;6279;42.192;24.326;2022-09-03T02:27:32;13.77;;;12.17;;
12429;SDS011;6279;42.192;24.326;2022-09-03T02:29:58;14.77;;;11.90;;
12429;SDS011;6279;42.192;24.326;2022-09-03T02:32:24;15.10;;;12.10;;
12429;SDS011;6279;42.192;24.326;2022-09-03T02:34:50;14.30;;;11.40;;
12429;SDS011;6279;42.192;24.326;2022-09-03T02:37:16;15.70;;;12.13;;
12429;SDS011;6279;42.192;24.326;2022-09-03T02:39:43;16.43;;;11.33;;
12429;SDS011;6279;42.192;24.326;2022-09-03T02:42:09;12.87;;;11.27;;
12429;SDS011;6279;42.192;24.326;2022-09-03T02:44:40;17.00;;;11.63;;
12429;SDS011;6279;42.192;24.326;2022-09-03T02:47:09;12.60;;;10.80;;
12429;SDS011;6279;42.192;24.326;2022-09-03T02:49:35;13.43;;;11.23;;
12429;SDS011;6279;42.192;24.326;2022-09-03T02:52:01;12.27;;;11.07;;
12429;SDS011;6279;42.192;24.326;2022-09-03T02:54:30;15.87;;;11.03;;
12429;SDS011;6279;42.192;24.326;2022-09-03T02:57:00;13.37;;;11.13;;
12429;SDS011;6279;42.192;24.326;2022-09-03T02:59:26;14.23;;;10.83;;
12429;SDS011;6279;42.192;24.326;2022-09-03T03:01:52;12.00;;;10.77;;
12429;SDS011;6279;42.192;24.326;2022-09-03T03:04:19;12.70;;;10.83;;
12429;SDS011;6279;42.192;24.326;2022-09-03T03:06:45;14.53;;;11.37;;
12429;SDS011;6279;42.192;24.326;2022-09-03T03:09:10;12.93;;;9.97;;
12429;SDS011;6279;42.192;24.326;2022-09-03T03:11:36;10.93;;;9.83;;
12429;SDS011;6279;42.192;24.326;2022-09-03T03:14:01;13.73;;;10.03;;
12429;SDS011;6279;42.192;24.326;2022-09-03T03:16:27;14.30;;;10.20;;
12429;SDS011;6279;42.192;24.326;2022-09-03T03:18:54;11.57;;;9.87;;
12429;SDS011;6279;42.192;24.326;2022-09-03T03:21:20;12.10;;;10.53;;
12429;SDS011;6279;42.192;24.326;2022-09-03T03:23:45;12.10;;;10.03;;
12429;SDS011;6279;42.192;24.326;2022-09-03T03:26:12;11.87;;;10.50;;
12429;SDS011;6279;42.192;24.326;2022-09-03T03:28:39;11.30;;;9.43;;
12429;SDS011;6279;42.192;24.326;2022-09-03T03:31:16;16.20;;;10.20;;
12429;SDS011;6279;42.192;24.326;2022-09-03T03:33:44;10.03;;;8.63;;
12429;SDS011;6279;42.192;24.326;2022-09-03T03:36:10;14.17;;;8.97;;
12429;SDS011;6279;42.192;24.326;2022-09-03T03:38:38;11.37;;;8.90;;
12429;SDS011;6279;42.192;24.326;2022-09-03T03:41:17;16.87;;;9.50;;
12429;SDS011;6279;42.192;24.326;2022-09-03T03:43:46;13.80;;;9.53;;
12429;SDS011;6279;42.192;24.326;2022-09-03T03:46:11;11.17;;;8.53;;
12429;SDS011;6279;42.192;24.326;2022-09-03T03:48:37;12.13;;;8.93;;
12429;SDS011;6279;42.192;24.326;2022-09-03T03:51:03;11.70;;;8.43;;
12429;SDS011;6279;42.192;24.326;2022-09-03T03:53:35;15.37;;;8.63;;
12429;SDS011;6279;42.192;24.326;2022-09-03T03:56:03;16.03;;;8.70;;
12429;SDS011;6279;42.192;24.326;2022-09-03T03:58:30;11.33;;;8.83;;
12429;SDS011;6279;42.192;24.326;2022-09-03T04:01:04;11.60;;;8.60;;
12429;SDS011;6279;42.192;24.326;2022-09-03T04:03:32;12.10;;;8.83;;
12429;SDS011;6279;42.192;24.326;2022-09-03T04:05:58;10.27;;;8.50;;
12429;SDS011;6279;42.192;24.326;2022-09-03T04:08:27;11.43;;;8.97;;
12429;SDS011;6279;42.192;24.326;2022-09-03T04:10:53;9.90;;;8.80;;
12429;SDS011;6279;42.192;24.326;2022-09-03T04:13:19;9.37;;;8.27;;
12429;SDS011;6279;42.192;24.326;2022-09-03T04:15:44;12.77;;;8.63;;
12429;SDS011;6279;42.192;24.326;2022-09-03T04:18:10;10.50;;;7.97;;
12429;SDS011;6279;42.192;24.326;2022-09-03T04:20:35;9.90;;;8.10;;
12429;SDS011;6279;42.192;24.326;2022-09-03T04:23:02;8.63;;;7.73;;
12429;SDS011;6279;42.192;24.326;2022-09-03T04:25:28;10.40;;;8.20;;
12429;SDS011;6279;42.192;24.326;2022-09-03T04:27:53;11.07;;;7.90;;
12429;SDS011;6279;42.192;24.326;2022-09-03T04:30:19;11.07;;;7.33;;
12429;SDS011;6279;42.192;24.326;2022-09-03T04:32:45;11.23;;;7.43;;
12429;SDS011;6279;42.192;24.326;2022-09-03T04:35:20;9.07;;;6.40;;
12429;SDS011;6279;42.192;24.326;2022-09-03T04:37:47;8.13;;;7.33;;
12429;SDS011;6279;42.192;24.326;2022-09-03T04:40:13;10.00;;;7.63;;
12429;SDS011;6279;42.192;24.326;2022-09-03T04:42:38;10.17;;;7.03;;
12429;SDS011;6279;42.192;24.326;2022-09-03T04:45:04;10.20;;;7.17;;
12429;SDS011;6279;42.192;24.326;2022-09-03T04:47:30;11.10;;;7.00;;
12429;SDS011;6279;42.192;24.326;2022-09-03T04:49:56;8.80;;;6.80;;
12429;SDS011;6279;42.192;24.326;2022-09-03T04:52:22;10.03;;;7.00;;
12429;SDS011;6279;42.192;24.326;2022-09-03T04:54:48;7.80;;;6.80;;
12429;SDS011;6279;42.192;24.326;2022-09-03T04:57:13;8.37;;;7.07;;
12429;SDS011;6279;42.192;24.326;2022-09-03T04:59:39;7.77;;;6.37;;
12429;SDS011;6279;42.192;24.326;2022-09-03T05:02:05;12.20;;;6.63;;
12429;SDS011;6279;42.192;24.326;2022-09-03T05:04:32;15.30;;;6.83;;
12429;SDS011;6279;42.192;24.326;2022-09-03T05:06:58;10.30;;;6.77;;
12429;SDS011;6279;42.192;24.326;2022-09-03T05:09:23;10.00;;;7.30;;
12429;SDS011;6279;42.192;24.326;2022-09-03T05:11:49;10.90;;;7.03;;
12429;SDS011;6279;42.192;24.326;2022-09-03T05:14:14;8.70;;;7.13;;
12429;SDS011;6279;42.192;24.326;2022-09-03T05:16:39;11.00;;;6.97;;
12429;SDS011;6279;42.192;24.326;2022-09-03T05:19:05;8.53;;;5.73;;
12429;SDS011;6279;42.192;24.326;2022-09-03T05:21:31;9.73;;;6.27;;
12429;SDS011;6279;42.192;24.326;2022-09-03T05:23:59;6.53;;;5.80;;
12429;SDS011;6279;42.192;24.326;2022-09-03T05:26:26;8.50;;;6.03;;
12429;SDS011;6279;42.192;24.326;2022-09-03T05:28:54;9.37;;;6.17;;
12429;SDS011;6279;42.192;24.326;2022-09-03T05:31:22;7.80;;;5.50;;
12429;SDS011;6279;42.192;24.326;2022-09-03T05:33:51;8.63;;;6.03;;
12429;SDS011;6279;42.192;24.326;2022-09-03T05:36:20;9.00;;;6.70;;
12429;SDS011;6279;42.192;24.326;2022-09-03T05:38:47;9.03;;;5.93;;
12429;SDS011;6279;42.192;24.326;2022-09-03T05:41:14;9.40;;;5.90;;
12429;SDS011;6279;42.192;24.326;2022-09-03T05:43:41;5.07;;;4.57;;
12429;SDS011;6279;42.192;24.326;2022-09-03T05:46:10;6.47;;;5.40;;
12429;SDS011;6279;42.192;24.326;2022-09-03T05:48:38;8.83;;;5.60;;
12429;SDS011;6279;42.192;24.326;2022-09-03T05:51:06;8.03;;;5.20;;
12429;SDS011;6279;42.192;24.326;2022-09-03T05:53:33;7.13;;;5.20;;
12429;SDS011;6279;42.192;24.326;2022-09-03T05:56:01;5.50;;;4.73;;
12429;SDS011;6279;42.192;24.326;2022-09-03T05:58:42;6.07;;;4.77;;
12429;SDS011;6279;42.192;24.326;2022-09-03T06:03:39;7.53;;;4.67;;
12429;SDS011;6279;42.192;24.326;2022-09-03T06:06:05;6.00;;;4.80;;
12429;SDS011;6279;42.192;24.326;2022-09-03T06:08:31;6.45;;;4.45;;
12429;SDS011;6279;42.192;24.326;2022-09-03T06:10:58;10.85;;;4.78;;
12429;SDS011;6279;42.192;24.326;2022-09-03T06:13:28;6.18;;;4.43;;
12429;SDS011;6279;42.192;24.326;2022-09-03T06:15:57;6.90;;;4.05;;
12429;SDS011;6279;42.192;24.326;2022-09-03T06:18:28;7.38;;;4.20;;
12429;SDS011;6279;42.192;24.326;2022-09-03T06:20:54;8.13;;;4.32;;
12429;SDS011;6279;42.192;24.326;2022-09-03T06:23:21;5.40;;;4.80;;
12429;SDS011;6279;42.192;24.326;2022-09-03T06:25:47;6.50;;;3.97;;
12429;SDS011;6279;42.192;24.326;2022-09-03T06:28:23;4.85;;;4.30;;
12429;SDS011;6279;42.192;24.326;2022-09-03T06:30:51;4.70;;;4.20;;
12429;SDS011;6279;42.192;24.326;2022-09-03T06:33:16;4.85;;;4.35;;
12429;SDS011;6279;42.192;24.326;2022-09-03T06:35:42;4.55;;;4.07;;
12429;SDS011;6279;42.192;24.326;2022-09-03T06:38:08;6.82;;;4.20;;
12429;SDS011;6279;42.192;24.326;2022-09-03T06:40:36;8.70;;;4.10;;
12429;SDS011;6279;42.192;24.326;2022-09-03T06:43:02;5.32;;;3.67;;
12429;SDS011;6279;42.192;24.326;2022-09-03T06:45:28;9.27;;;3.95;;
12429;SDS011;6279;42.192;24.326;2022-09-03T06:47:54;3.83;;;2.78;;
12429;SDS011;6279;42.192;24.326;2022-09-03T06:50:20;3.22;;;2.38;;
12429;SDS011;6279;42.192;24.326;2022-09-03T06:52:52;7.10;;;2.55;;
12429;SDS011;6279;42.192;24.326;2022-09-03T06:55:19;3.25;;;2.95;;
12429;SDS011;6279;42.192;24.326;2022-09-03T06:57:46;6.15;;;2.75;;
12429;SDS011;6279;42.192;24.326;2022-09-03T07:00:12;5.82;;;2.92;;
12429;SDS011;6279;42.192;24.326;2022-09-03T07:02:38;3.72;;;3.25;;
12429;SDS011;6279;42.192;24.326;2022-09-03T07:05:05;10.15;;;2.70;;
12429;SDS011;6279;42.192;24.326;2022-09-03T07:07:32;2.92;;;2.72;;
12429;SDS011;6279;42.192;24.326;2022-09-03T07:09:57;3.13;;;2.55;;
12429;SDS011;6279;42.192;24.326;2022-09-03T07:12:22;4.47;;;2.65;;
12429;SDS011;6279;42.192;24.326;2022-09-03T07:14:48;5.53;;;2.70;;
12429;SDS011;6279;42.192;24.326;2022-09-03T07:17:14;3.88;;;2.20;;
12429;SDS011;6279;42.192;24.326;2022-09-03T07:19:40;3.92;;;2.42;;
12429;SDS011;6279;42.192;24.326;2022-09-03T07:22:06;2.53;;;2.33;;
12429;SDS011;6279;42.192;24.326;2022-09-03T07:24:32;2.70;;;2.50;;
12429;SDS011;6279;42.192;24.326;2022-09-03T07:26:57;4.43;;;2.53;;
12429;SDS011;6279;42.192;24.326;2022-09-03T07:29:23;2.85;;;2.50;;
12429;SDS011;6279;42.192;24.326;2022-09-03T07:31:48;4.68;;;2.55;;
12429;SDS011;6279;42.192;24.326;2022-09-03T07:34:15;3.15;;;2.78;;
12429;SDS011;6279;42.192;24.326;2022-09-03T07:36:42;3.38;;;3.08;;
12429;SDS011;6279;42.192;24.326;2022-09-03T07:39:11;3.50;;;3.20;;
12429;SDS011;6279;42.192;24.326;2022-09-03T07:41:38;5.32;;;3.55;;
12429;SDS011;6279;42.192;24.326;2022-09-03T07:44:08;6.13;;;3.90;;
12429;SDS011;6279;42.192;24.326;2022-09-03T07:46:34;4.80;;;3.55;;
12429;SDS011;6279;42.192;24.326;2022-09-03T07:49:02;4.10;;;3.72;;
12429;SDS011;6279;42.192;24.326;2022-09-03T07:51:29;6.53;;;3.65;;
12429;SDS011;6279;42.192;24.326;2022-09-03T07:53:56;5.47;;;4.18;;
12429;SDS011;6279;42.192;24.326;2022-09-03T07:56:24;3.92;;;3.63;;
12429;SDS011;6279;42.192;24.326;2022-09-03T07:58:51;4.55;;;3.70;;
12429;SDS011;6279;42.192;24.326;2022-09-03T08:01:17;4.72;;;3.80;;
12429;SDS011;6279;42.192;24.326;2022-09-03T08:03:46;4.10;;;3.70;;
12429;SDS011;6279;42.192;24.326;2022-09-03T08:06:13;4.00;;;3.67;;
12429;SDS011;6279;42.192;24.326;2022-09-03T08:08:40;5.78;;;3.60;;
12429;SDS011;6279;42.192;24.326;2022-09-03T08:11:09;5.72;;;3.80;;
12429;SDS011;6279;42.192;24.326;2022-09-03T08:13:40;3.97;;;3.58;;
12429;SDS011;6279;42.192;24.326;2022-09-03T08:16:09;3.88;;;3.50;;
12429;SDS011;6279;42.192;24.326;2022-09-03T08:18:36;3.50;;;3.20;;
12429;SDS011;6279;42.192;24.326;2022-09-03T08:21:07;4.18;;;3.83;;
12429;SDS011;6279;42.192;24.326;2022-09-03T08:23:41;5.88;;;3.50;;
12429;SDS011;6279;42.192;24.326;2022-09-03T08:26:08;4.68;;;3.38;;
12429;SDS011;6279;42.192;24.326;2022-09-03T08:28:34;4.18;;;3.50;;
12429;SDS011;6279;42.192;24.326;2022-09-03T08:31:19;4.82;;;3.90;;
12429;SDS011;6279;42.192;24.326;2022-09-03T08:33:46;5.32;;;3.47;;
12429;SDS011;6279;42.192;24.326;2022-09-03T08:36:17;4.07;;;3.67;;
12429;SDS011;6279;42.192;24.326;2022-09-03T08:38:49;4.57;;;4.18;;
12429;SDS011;6279;42.192;24.326;2022-09-03T08:44:13;5.53;;;4.07;;
12429;SDS011;6279;42.192;24.326;2022-09-03T08:46:45;4.60;;;4.10;;
12429;SDS011;6279;42.192;24.326;2022-09-03T08:49:12;4.30;;;3.90;;
12429;SDS011;6279;42.192;24.326;2022-09-03T08:51:40;4.70;;;3.75;;
12429;SDS011;6279;42.192;24.326;2022-09-03T08:54:08;4.30;;;3.90;;
12429;SDS011;6279;42.192;24.326;2022-09-03T08:56:37;7.38;;;4.18;;
12429;SDS011;6279;42.192;24.326;2022-09-03T08:59:05;5.07;;;4.45;;
12429;SDS011;6279;42.192;24.326;2022-09-03T09:07:40;5.93;;;4.28;;
12429;SDS011;6279;42.192;24.326;2022-09-03T09:18:26;4.63;;;4.03;;
12429;SDS011;6279;42.192;24.326;2022-09-03T09:20:58;4.13;;;3.67;;
12429;SDS011;6279;42.192;24.326;2022-09-03T09:23:40;4.03;;;3.72;;
12429;SDS011;6279;42.192;24.326;2022-09-03T09:26:11;3.90;;;3.60;;
12429;SDS011;6279;42.192;24.326;2022-09-03T09:28:39;5.18;;;3.95;;
12429;SDS011;6279;42.192;24.326;2022-09-03T09:31:08;3.80;;;3.40;;
12429;SDS011;6279;42.192;24.326;2022-09-03T09:33:39;4.07;;;3.78;;
12429;SDS011;6279;42.192;24.326;2022-09-03T09:36:09;4.75;;;4.03;;
12429;SDS011;6279;42.192;24.326;2022-09-03T09:38:39;4.22;;;3.90;;
12429;SDS011;6279;42.192;24.326;2022-09-03T09:43:36;4.43;;;4.03;;
12429;SDS011;6279;42.192;24.326;2022-09-03T09:46:22;4.00;;;3.70;;
12429;SDS011;6279;42.192;24.326;2022-09-03T09:48:51;4.45;;;3.95;;
12429;SDS011;6279;42.192;24.326;2022-09-03T09:51:20;4.97;;;3.50;;
12429;SDS011;6279;42.192;24.326;2022-09-03T09:53:58;4.00;;;3.70;;
12429;SDS011;6279;42.192;24.326;2022-09-03T09:56:36;5.22;;;3.97;;
12429;SDS011;6279;42.192;24.326;2022-09-03T09:59:05;3.60;;;3.30;;
12429;SDS011;6279;42.192;24.326;2022-09-03T10:01:33;3.63;;;3.33;;
12429;SDS011;6279;42.192;24.326;2022-09-03T10:04:07;4.70;;;4.30;;
12429;SDS011;6279;42.192;24.326;2022-09-03T10:06:34;4.55;;;4.15;;
12429;SDS011;6279;42.192;24.326;2022-09-03T10:09:19;4.60;;;3.22;;
12429;SDS011;6279;42.192;24.326;2022-09-03T10:14:33;3.58;;;2.50;;
12429;SDS011;6279;42.192;24.326;2022-09-03T10:22:54;3.58;;;2.55;;
12429;SDS011;6279;42.192;24.326;2022-09-03T10:25:39;3.45;;;2.58;;
12429;SDS011;6279;42.192;24.326;2022-09-03T10:28:15;3.30;;;2.72;;
12429;SDS011;6279;42.192;24.326;2022-09-03T10:33:40;2.67;;;2.40;;
12429;SDS011;6279;42.192;24.326;2022-09-03T10:36:27;3.13;;;2.70;;
12429;SDS011;6279;42.192;24.326;2022-09-03T10:39:04;4.40;;;3.33;;
12429;SDS011;6279;42.192;24.326;2022-09-03T10:41:47;3.33;;;3.00;;
12429;SDS011;6279;42.192;24.326;2022-09-03T10:44:28;3.33;;;3.00;;
12429;SDS011;6279;42.192;24.326;2022-09-03T10:49:52;3.20;;;2.90;;
12429;SDS011;6279;42.192;24.326;2022-09-03T10:55:30;4.10;;;2.80;;
12429;SDS011;6279;42.192;24.326;2022-09-03T11:00:58;2.40;;;2.20;;
12429;SDS011;6279;42.192;24.326;2022-09-03T11:06:51;4.47;;;2.10;;
12429;SDS011;6279;42.192;24.326;2022-09-03T11:09:21;2.20;;;2.00;;
12429;SDS011;6279;42.192;24.326;2022-09-03T11:11:56;1.73;;;1.63;;
12429;SDS011;6279;42.192;24.326;2022-09-03T11:14:30;2.63;;;1.90;;
12429;SDS011;6279;42.192;24.326;2022-09-03T11:17:03;2.17;;;1.80;;
12429;SDS011;6279;42.192;24.326;2022-09-03T11:19:49;2.90;;;1.80;;
12429;SDS011;6279;42.192;24.326;2022-09-03T11:22:19;2.10;;;1.90;;
12429;SDS011;6279;42.192;24.326;2022-09-03T11:24:49;2.15;;;1.90;;
12429;SDS011;6279;42.192;24.326;2022-09-03T11:30:08;1.90;;;1.80;;
12429;SDS011;6279;42.192;24.326;2022-09-03T11:44:09;4.85;;;1.90;;
12429;SDS011;6279;42.192;24.326;2022-09-03T11:46:40;1.90;;;1.63;;
12429;SDS011;6279;42.192;24.326;2022-09-03T11:49:24;2.42;;;2.22;;
12429;SDS011;6279;42.192;24.326;2022-09-03T11:52:03;2.30;;;2.00;;
12429;SDS011;6279;42.192;24.326;2022-09-03T11:54:41;2.28;;;1.75;;
12429;SDS011;6279;42.192;24.326;2022-09-03T11:59:37;1.70;;;1.60;;
12429;SDS011;6279;42.192;24.326;2022-09-03T12:10:00;2.17;;;1.90;;
12429;SDS011;6279;42.192;24.326;2022-09-03T12:12:34;2.85;;;1.90;;
12429;SDS011;6279;42.192;24.326;2022-09-03T12:20:44;2.67;;;2.00;;
12429;SDS011;6279;42.192;24.326;2022-09-03T12:23:24;1.58;;;1.48;;
12429;SDS011;6279;42.192;24.326;2022-09-03T12:25:57;3.20;;;1.75;;
12429;SDS011;6279;42.192;24.326;2022-09-03T12:28:25;2.58;;;1.95;;
12429;SDS011;6279;42.192;24.326;2022-09-03T12:30:53;3.05;;;1.92;;
12429;SDS011;6279;42.192;24.326;2022-09-03T12:33:30;2.22;;;2.03;;
12429;SDS011;6279;42.192;24.326;2022-09-03T12:35:59;2.65;;;1.80;;
12429;SDS011;6279;42.192;24.326;2022-09-03T12:38:26;2.40;;;2.20;;
12429;SDS011;6279;42.192;24.326;2022-09-03T12:40:53;2.13;;;1.92;;
12429;SDS011;6279;42.192;24.326;2022-09-03T12:43:19;2.20;;;1.33;;
12429;SDS011;6279;42.192;24.326;2022-09-03T12:45:48;1.63;;;1.50;;
12429;SDS011;6279;42.192;24.326;2022-09-03T12:48:18;1.80;;;1.60;;
12429;SDS011;6279;42.192;24.326;2022-09-03T12:50:45;1.80;;;1.70;;
12429;SDS011;6279;42.192;24.326;2022-09-03T12:53:13;1.85;;;1.38;;
12429;SDS011;6279;42.192;24.326;2022-09-03T12:55:48;1.40;;;1.30;;
12429;SDS011;6279;42.192;24.326;2022-09-03T12:58:19;2.00;;;1.60;;
12429;SDS011;6279;42.192;24.326;2022-09-03T13:00:49;1.63;;;1.52;;
12429;SDS011;6279;42.192;24.326;2022-09-03T13:03:23;1.58;;;1.45;;
12429;SDS011;6279;42.192;24.326;2022-09-03T13:05:53;2.15;;;1.60;;
12429;SDS011;6279;42.192;24.326;2022-09-03T13:08:22;2.67;;;2.00;;
12429;SDS011;6279;42.192;24.326;2022-09-03T13:10:55;2.15;;;1.92;;
12429;SDS011;6279;42.192;24.326;2022-09-03T13:13:27;1.83;;;1.70;;
12429;SDS011;6279;42.192;24.326;2022-09-03T13:34:59;8.20;;;2.60;;
12429;SDS011;6279;42.192;24.326;2022-09-03T13:37:39;3.00;;;2.00;;
12429;SDS011;6279;42.192;24.326;2022-09-03T13:43:33;4.03;;;3.63;;
12429;SDS011;6279;42.192;24.326;2022-09-03T13:45:59;2.28;;;2.08;;
12429;SDS011;6279;42.192;24.326;2022-09-03T13:51:26;2.83;;;2.60;;
12429;SDS011;6279;42.192;24.326;2022-09-03T13:59:23;2.85;;;2.17;;
12429;SDS011;6279;42.192;24.326;2022-09-03T14:01:57;4.32;;;2.30;;
12429;SDS011;6279;42.192;24.326;2022-09-03T14:04:43;3.25;;;2.60;;
12429;SDS011;6279;42.192;24.326;2022-09-03T14:07:34;2.75;;;2.30;;
12429;SDS011;6279;42.192;24.326;2022-09-03T14:22:08;4.20;;;2.00;;
12429;SDS011;6279;42.192;24.326;2022-09-03T14:24:50;2.25;;;1.98;;
12429;SDS011;6279;42.192;24.326;2022-09-03T14:27:23;3.92;;;2.28;;
12429;SDS011;6279;42.192;24.326;2022-09-03T14:29:57;4.43;;;2.92;;
12429;SDS011;6279;42.192;24.326;2022-09-03T14:44:37;2.10;;;2.00;;
12429;SDS011;6279;42.192;24.326;2022-09-03T14:53:00;3.63;;;2.83;;
12429;SDS011;6279;42.192;24.326;2022-09-03T14:55:47;3.42;;;3.13;;
12429;SDS011;6279;42.192;24.326;2022-09-03T15:00:59;4.47;;;3.85;;
12429;SDS011;6279;42.192;24.326;2022-09-03T15:06:24;3.25;;;1.73;;
12429;SDS011;6279;42.192;24.326;2022-09-03T15:11:18;2.28;;;2.08;;
12429;SDS011;6279;42.192;24.326;2022-09-03T15:13:50;4.63;;;2.45;;
12429;SDS011;6279;42.192;24.326;2022-09-03T15:16:29;3.13;;;2.50;;
12429;SDS011;6279;42.192;24.326;2022-09-03T15:36:50;5.20;;;2.00;;
12429;SDS011;6279;42.192;24.326;2022-09-03T15:39:25;2.13;;;1.90;;
12429;SDS011;6279;42.192;24.326;2022-09-03T15:41:56;3.30;;;2.90;;
12429;SDS011;6279;42.192;24.326;2022-09-03T15:44:25;3.50;;;3.10;;
12429;SDS011;6279;42.192;24.326;2022-09-03T15:46:59;3.50;;;3.20;;
12429;SDS011;6279;42.192;24.326;2022-09-03T15:52:24;5.63;;;2.58;;
12429;SDS011;6279;42.192;24.326;2022-09-03T15:57:43;4.47;;;2.30;;
12429;SDS011;6279;42.192;24.326;2022-09-03T16:00:37;2.40;;;2.20;;
12429;SDS011;6279;42.192;24.326;2022-09-03T16:03:15;2.53;;;2.33;;
12429;SDS011;6279;42.192;24.326;2022-09-03T16:08:53;3.83;;;2.60;;
12429;SDS011;6279;42.192;24.326;2022-09-03T16:27:08;3.00;;;2.03;;
12429;SDS011;6279;42.192;24.326;2022-09-03T16:29:41;3.35;;;2.53;;
12429;SDS011;6279;42.192;24.326;2022-09-03T16:41:07;3.13;;;2.60;;
12429;SDS011;6279;42.192;24.326;2022-09-03T16:52:15;5.95;;;3.20;;
12429;SDS011;6279;42.192;24.326;2022-09-03T17:10:44;5.87;;;2.57;;
12429;SDS011;6279;42.192;24.326;2022-09-03T17:21:39;3.83;;;3.07;;
12429;SDS011;6279;42.192;24.326;2022-09-03T17:24:22;4.17;;;3.20;;
12429;SDS011;6279;42.192;24.326;2022-09-03T17:26:55;3.00;;;2.67;;
12429;SDS011;6279;42.192;24.326;2022-09-03T17:43:23;5.43;;;4.10;;
12429;SDS011;6279;42.192;24.326;2022-09-03T17:54:07;4.90;;;3.40;;
12429;SDS011;6279;42.192;24.326;2022-09-03T17:56:52;8.50;;;3.20;;
12429;SDS011;6279;42.192;24.326;2022-09-03T18:10:31;8.53;;;4.20;;
12429;SDS011;6279;42.192;24.326;2022-09-03T18:15:54;3.80;;;3.50;;
12429;SDS011;6279;42.192;24.326;2022-09-03T18:18:30;4.57;;;3.47;;
12429;SDS011;6279;42.192;24.326;2022-09-03T18:20:58;4.50;;;3.20;;
12429;SDS011;6279;42.192;24.326;2022-09-03T18:23:57;5.30;;;3.10;;
12429;SDS011;6279;42.192;24.326;2022-09-03T18:26:44;4.70;;;3.03;;
12429;SDS011;6279;42.192;24.326;2022-09-03T18:29:36;3.30;;;3.00;;
12429;SDS011;6279;42.192;24.326;2022-09-03T18:32:28;3.33;;;3.03;;
12429;SDS011;6279;42.192;24.326;2022-09-03T18:35:12;3.40;;;3.10;;
12429;SDS011;6279;42.192;24.326;2022-09-03T18:37:57;3.10;;;2.90;;
12429;SDS011;6279;42.192;24.326;2022-09-03T18:41:27;5.30;;;3.33;;
12429;SDS011;6279;42.192;24.326;2022-09-03T18:43:57;3.37;;;3.07;;
12429;SDS011;6279;42.192;24.326;2022-09-03T18:53:05;4.47;;;3.20;;
12429;SDS011;6279;42.192;24.326;2022-09-03T18:59:19;3.73;;;3.40;;
12429;SDS011;6279;42.192;24.326;2022-09-03T19:02:32;4.33;;;3.27;;
12429;SDS011;6279;42.192;24.326;2022-09-03T19:08:31;3.30;;;2.83;;
12429;SDS011;6279;42.192;24.326;2022-09-03T19:11:28;4.10;;;3.70;;
12429;SDS011;6279;42.192;24.326;2022-09-03T19:14:21;4.27;;;3.40;;
12429;SDS011;6279;42.192;24.326;2022-09-03T19:17:14;4.23;;;3.83;;
12429;SDS011;6279;42.192;24.326;2022-09-03T19:20:13;4.97;;;4.03;;
12429;SDS011;6279;42.192;24.326;2022-09-03T19:23:05;5.53;;;3.43;;
12429;SDS011;6279;42.192;24.326;2022-09-03T19:25:49;4.37;;;3.97;;
12429;SDS011;6279;42.192;24.326;2022-09-03T19:28:38;4.27;;;3.23;;
12429;SDS011;6279;42.192;24.326;2022-09-03T19:52:28;3.63;;;3.30;;
12429;SDS011;6279;42.192;24.326;2022-09-03T19:55:26;4.13;;;3.73;;
12429;SDS011;6279;42.192;24.326;2022-09-03T19:58:12;3.73;;;3.43;;
12429;SDS011;6279;42.192;24.326;2022-09-03T20:01:00;4.17;;;3.77;;
12429;SDS011;6279;42.192;24.326;2022-09-03T20:03:44;6.30;;;3.90;;
12429;SDS011;6279;42.192;24.326;2022-09-03T20:06:28;6.43;;;3.80;;
12429;SDS011;6279;42.192;24.326;2022-09-03T20:09:16;4.97;;;3.70;;
12429;SDS011;6279;42.192;24.326;2022-09-03T20:12:05;5.37;;;3.87;;
12429;SDS011;6279;42.192;24.326;2022-09-03T20:14:33;4.00;;;3.70;;
12429;SDS011;6279;42.192;24.326;2022-09-03T20:38:45;5.80;;;4.57;;
12429;SDS011;6279;42.192;24.326;2022-09-03T20:52:40;9.80;;;4.43;;
12429;SDS011;6279;42.192;24.326;2022-09-03T20:55:19;4.80;;;4.40;;
12429;SDS011;6279;42.192;24.326;2022-09-03T21:01:01;6.77;;;4.10;;
12429;SDS011;6279;42.192;24.326;2022-09-03T21:03:31;5.17;;;4.40;;
12429;SDS011;6279;42.192;24.326;2022-09-03T21:06:02;4.77;;;4.23;;
12429;SDS011;6279;42.192;24.326;2022-09-03T21:11:14;4.53;;;4.00;;
12429;SDS011;6279;42.192;24.326;2022-09-03T21:17:06;5.60;;;4.17;;
12429;SDS011;6279;42.192;24.326;2022-09-03T21:22:17;5.07;;;4.57;;
12429;SDS011;6279;42.192;24.326;2022-09-03T21:24:52;4.60;;;4.20;;
12429;SDS011;6279;42.192;24.326;2022-09-03T21:27:40;6.37;;;4.30;;
12429;SDS011;6279;42.192;24.326;2022-09-03T21:30:15;5.93;;;4.63;;
12429;SDS011;6279;42.192;24.326;2022-09-03T21:32:45;4.97;;;4.47;;
12429;SDS011;6279;42.192;24.326;2022-09-03T21:35:27;9.07;;;4.63;;
12429;SDS011;6279;42.192;24.326;2022-09-03T21:40:32;5.10;;;4.30;;
12429;SDS011;6279;42.192;24.326;2022-09-03T21:43:18;6.27;;;4.20;;
12429;SDS011;6279;42.192;24.326;2022-09-03T21:45:56;5.00;;;4.20;;
12429;SDS011;6279;42.192;24.326;2022-09-03T21:48:48;5.00;;;4.50;;
12429;SDS011;6279;42.192;24.326;2022-09-03T21:54:07;7.27;;;4.70;;
12429;SDS011;6279;42.192;24.326;2022-09-03T22:02:22;5.07;;;4.37;;
12429;SDS011;6279;42.192;24.326;2022-09-03T22:04:46;5.03;;;4.63;;
12429;SDS011;6279;42.192;24.326;2022-09-03T22:07:24;6.87;;;4.90;;
12429;SDS011;6279;42.192;24.326;2022-09-03T22:12:46;4.73;;;4.33;;
12429;SDS011;6279;42.192;24.326;2022-09-03T22:15:39;4.67;;;4.27;;